sensor_id;sensor_type;location;lat;lon;timestamp;temperature;humidity
19152;DHT22;9708;53.114;9.388;2023-04-01T00:01:26;10.50;99.90
19152;DHT22;9708;53.114;9.388;2023-04-01T00:03:53;10.40;99.90
19152;DHT22;9708;53.114;9.388;2023-04-01T00:06:22;10.50;99.90
19152;DHT22;9708;53.114;9.388;2023-04-01T00:08:50;10.50;99.90
19152;DHT22;9708;53.114;9.388;2023-04-01T00:11:18;10.50;99.90
19152;DHT22;9708;53.114;9.388;2023-04-01T00:13:45;10.40;99.90
19152;DHT22;9708;53.114;9.388;2023-04-01T00:16:12;10.40;99.90
19152;DHT22;9708;53.114;9.388;2023-04-01T00:18:39;10.40;99.90
19152;DHT22;9708;53.114;9.388;2023-04-01T00:21:06;10.50;99.90
19152;DHT22;9708;53.114;9.388;2023-04-01T00:23:34;10.50;99.90
19152;DHT22;9708;53.114;9.388;2023-04-01T00:26:03;10.50;99.90
19152;DHT22;9708;53.114;9.388;2023-04-01T00:28:30;10.50;99.90
19152;DHT22;9708;53.114;9.388;2023-04-01T00:30:57;10.50;99.90
19152;DHT22;9708;53.114;9.388;2023-04-01T00:33:24;10.50;99.90
19152;DHT22;9708;53.114;9.388;2023-04-01T00:35:52;10.60;99.90
19152;DHT22;9708;53.114;9.388;2023-04-01T00:38:19;10.50;99.90
19152;DHT22;9708;53.114;9.388;2023-04-01T00:40:47;10.40;99.90
19152;DHT22;9708;53.114;9.388;2023-04-01T00:43:17;10.50;99.90
19152;DHT22;9708;53.114;9.388;2023-04-01T00:45:46;10.50;99.90
19152;DHT22;9708;53.114;9.388;2023-04-01T00:48:16;10.60;99.90
19152;DHT22;9708;53.114;9.388;2023-04-01T00:50:47;10.50;99.90
19152;DHT22;9708;53.114;9.388;2023-04-01T00:53:16;10.50;99.90
19152;DHT22;9708;53.114;9.388;2023-04-01T00:55:49;10.60;99.90
19152;DHT22;9708;53.114;9.388;2023-04-01T00:58:21;10.60;99.90
19152;DHT22;9708;53.114;9.388;2023-04-01T01:00:49;10.60;99.90
19152;DHT22;9708;53.114;9.388;2023-04-01T01:03:17;10.40;99.90
19152;DHT22;9708;53.114;9.388;2023-04-01T01:11:32;10.40;99.90
19152;DHT22;9708;53.114;9.388;2023-04-01T01:14:19;10.50;99.90
19152;DHT22;9708;53.114;9.388;2023-04-01T01:16:51;10.40;99.90
19152;DHT22;9708;53.114;9.388;2023-04-01T01:19:39;10.60;99.90
19152;DHT22;9708;53.114;9.388;2023-04-01T01:22:42;10.50;99.90
19152;DHT22;9708;53.114;9.388;2023-04-01T01:25:22;10.50;99.90
19152;DHT22;9708;53.114;9.388;2023-04-01T01:27:58;10.40;99.90
19152;DHT22;9708;53.114;9.388;2023-04-01T01:30:42;10.30;99.90
19152;DHT22;9708;53.114;9.388;2023-04-01T01:33:24;10.40;99.90
19152;DHT22;9708;53.114;9.388;2023-04-01T01:35:54;10.40;99.90
19152;DHT22;9708;53.114;9.388;2023-04-01T01:38:23;10.50;99.90
19152;DHT22;9708;53.114;9.388;2023-04-01T01:40:52;10.50;99.90
19152;DHT22;9708;53.114;9.388;2023-04-01T01:43:25;10.40;99.90
19152;DHT22;9708;53.114;9.388;2023-04-01T01:45:55;10.40;99.90
19152;DHT22;9708;53.114;9.388;2023-04-01T01:48:24;10.50;99.90
19152;DHT22;9708;53.114;9.388;2023-04-01T01:50:54;10.50;99.90
19152;DHT22;9708;53.114;9.388;2023-04-01T01:53:21;10.40;99.90
19152;DHT22;9708;53.114;9.388;2023-04-01T01:55:48;10.50;99.90
19152;DHT22;9708;53.114;9.388;2023-04-01T01:58:19;10.40;99.90
19152;DHT22;9708;53.114;9.388;2023-04-01T02:00:50;10.30;99.90
19152;DHT22;9708;53.114;9.388;2023-04-01T02:03:19;10.40;99.90
19152;DHT22;9708;53.114;9.388;2023-04-01T02:05:47;10.30;99.90
19152;DHT22;9708;53.114;9.388;2023-04-01T02:08:18;10.30;99.90
19152;DHT22;9708;53.114;9.388;2023-04-01T02:10:53;10.40;99.90
19152;DHT22;9708;53.114;9.388;2023-04-01T02:13:27;10.40;99.90
19152;DHT22;9708;53.114;9.388;2023-04-01T02:16:00;10.30;99.90
19152;DHT22;9708;53.114;9.388;2023-04-01T02:18:30;10.30;99.90
19152;DHT22;9708;53.114;9.388;2023-04-01T02:20:59;10.30;99.90
19152;DHT22;9708;53.114;9.388;2023-04-01T02:23:28;10.40;99.90
19152;DHT22;9708;53.114;9.388;2023-04-01T02:25:56;10.50;99.90
19152;DHT22;9708;53.114;9.388;2023-04-01T02:28:24;10.60;99.90
19152;DHT22;9708;53.114;9.388;2023-04-01T02:30:52;10.60;99.90
19152;DHT22;9708;53.114;9.388;2023-04-01T02:33:20;10.40;99.90
19152;DHT22;9708;53.114;9.388;2023-04-01T02:35:47;10.30;99.90
19152;DHT22;9708;53.114;9.388;2023-04-01T02:38:14;10.40;99.90
19152;DHT22;9708;53.114;9.388;2023-04-01T02:40:45;10.50;99.90
19152;DHT22;9708;53.114;9.388;2023-04-01T02:43:12;10.30;99.90
19152;DHT22;9708;53.114;9.388;2023-04-01T02:45:39;10.20;99.90
19152;DHT22;9708;53.114;9.388;2023-04-01T02:48:06;10.30;99.90
19152;DHT22;9708;53.114;9.388;2023-04-01T02:50:32;10.40;99.90
19152;DHT22;9708;53.114;9.388;2023-04-01T02:53:00;10.30;99.90
19152;DHT22;9708;53.114;9.388;2023-04-01T02:55:28;10.20;99.90
19152;DHT22;9708;53.114;9.388;2023-04-01T02:57:57;10.20;99.90
19152;DHT22;9708;53.114;9.388;2023-04-01T03:00:24;10.30;99.90
19152;DHT22;9708;53.114;9.388;2023-04-01T03:02:51;10.40;99.90
19152;DHT22;9708;53.114;9.388;2023-04-01T03:05:19;10.30;99.90
19152;DHT22;9708;53.114;9.388;2023-04-01T03:07:46;10.30;99.90
19152;DHT22;9708;53.114;9.388;2023-04-01T03:10:13;10.20;99.90
19152;DHT22;9708;53.114;9.388;2023-04-01T03:12:40;10.20;99.90
19152;DHT22;9708;53.114;9.388;2023-04-01T03:15:10;10.30;99.90
19152;DHT22;9708;53.114;9.388;2023-04-01T03:17:37;10.20;99.90
19152;DHT22;9708;53.114;9.388;2023-04-01T03:20:04;10.20;99.90
19152;DHT22;9708;53.114;9.388;2023-04-01T03:22:31;10.30;99.90
19152;DHT22;9708;53.114;9.388;2023-04-01T03:24:58;10.20;99.90
19152;DHT22;9708;53.114;9.388;2023-04-01T03:27:25;10.30;99.90
19152;DHT22;9708;53.114;9.388;2023-04-01T03:29:51;10.30;99.90
19152;DHT22;9708;53.114;9.388;2023-04-01T03:32:20;10.30;99.90
19152;DHT22;9708;53.114;9.388;2023-04-01T03:34:46;10.30;99.90
19152;DHT22;9708;53.114;9.388;2023-04-01T03:37:13;10.30;99.90
19152;DHT22;9708;53.114;9.388;2023-04-01T03:39:40;10.30;99.90
19152;DHT22;9708;53.114;9.388;2023-04-01T03:42:07;10.30;99.90
19152;DHT22;9708;53.114;9.388;2023-04-01T03:44:34;10.30;99.90
19152;DHT22;9708;53.114;9.388;2023-04-01T03:47:01;10.30;99.90
19152;DHT22;9708;53.114;9.388;2023-04-01T03:49:29;10.40;99.90
19152;DHT22;9708;53.114;9.388;2023-04-01T03:51:58;10.30;99.90
19152;DHT22;9708;53.114;9.388;2023-04-01T03:54:25;10.20;99.90
19152;DHT22;9708;53.114;9.388;2023-04-01T03:56:51;10.20;99.90
19152;DHT22;9708;53.114;9.388;2023-04-01T03:59:18;10.20;99.90
19152;DHT22;9708;53.114;9.388;2023-04-01T04:01:46;10.20;99.90
19152;DHT22;9708;53.114;9.388;2023-04-01T04:04:14;10.20;99.90
19152;DHT22;9708;53.114;9.388;2023-04-01T04:06:42;10.30;99.90
19152;DHT22;9708;53.114;9.388;2023-04-01T04:09:09;10.20;99.90
19152;DHT22;9708;53.114;9.388;2023-04-01T04:11:36;10.20;99.90
19152;DHT22;9708;53.114;9.388;2023-04-01T04:14:03;10.20;99.90
19152;DHT22;9708;53.114;9.388;2023-04-01T04:16:29;10.10;99.90
19152;DHT22;9708;53.114;9.388;2023-04-01T04:18:56;10.30;99.90
19152;DHT22;9708;53.114;9.388;2023-04-01T04:21:23;10.20;99.90
19152;DHT22;9708;53.114;9.388;2023-04-01T04:23:51;10.10;99.90
19152;DHT22;9708;53.114;9.388;2023-04-01T04:26:18;10.10;99.90
19152;DHT22;9708;53.114;9.388;2023-04-01T04:28:45;10.10;99.90
19152;DHT22;9708;53.114;9.388;2023-04-01T04:31:12;10.20;99.90
19152;DHT22;9708;53.114;9.388;2023-04-01T04:33:44;10.30;99.90
19152;DHT22;9708;53.114;9.388;2023-04-01T04:36:10;10.20;99.90
19152;DHT22;9708;53.114;9.388;2023-04-01T04:38:37;10.30;99.90
19152;DHT22;9708;53.114;9.388;2023-04-01T04:41:09;10.30;99.90
19152;DHT22;9708;53.114;9.388;2023-04-01T04:43:37;10.50;99.90
19152;DHT22;9708;53.114;9.388;2023-04-01T04:46:05;10.30;99.90
19152;DHT22;9708;53.114;9.388;2023-04-01T04:48:32;10.20;99.90
19152;DHT22;9708;53.114;9.388;2023-04-01T04:50:58;10.20;99.90
19152;DHT22;9708;53.114;9.388;2023-04-01T04:53:26;10.10;99.90
19152;DHT22;9708;53.114;9.388;2023-04-01T04:55:53;10.10;99.90
19152;DHT22;9708;53.114;9.388;2023-04-01T04:58:21;10.20;99.90
19152;DHT22;9708;53.114;9.388;2023-04-01T05:00:48;10.20;99.90
19152;DHT22;9708;53.114;9.388;2023-04-01T05:03:15;10.20;99.90
19152;DHT22;9708;53.114;9.388;2023-04-01T05:05:48;10.20;99.90
19152;DHT22;9708;53.114;9.388;2023-04-01T05:08:15;10.20;99.90
19152;DHT22;9708;53.114;9.388;2023-04-01T05:10:42;10.10;99.90
19152;DHT22;9708;53.114;9.388;2023-04-01T05:13:10;10.10;99.90
19152;DHT22;9708;53.114;9.388;2023-04-01T05:15:38;10.10;99.90
19152;DHT22;9708;53.114;9.388;2023-04-01T05:18:05;10.10;99.90
19152;DHT22;9708;53.114;9.388;2023-04-01T05:20:31;10.20;99.90
19152;DHT22;9708;53.114;9.388;2023-04-01T05:22:58;10.10;99.90
19152;DHT22;9708;53.114;9.388;2023-04-01T05:25:25;10.10;99.90
19152;DHT22;9708;53.114;9.388;2023-04-01T05:27:52;10.10;99.90
19152;DHT22;9708;53.114;9.388;2023-04-01T05:30:19;10.10;99.90
19152;DHT22;9708;53.114;9.388;2023-04-01T05:32:48;10.10;99.90
19152;DHT22;9708;53.114;9.388;2023-04-01T05:35:15;10.10;99.90
19152;DHT22;9708;53.114;9.388;2023-04-01T05:37:41;10.00;99.90
19152;DHT22;9708;53.114;9.388;2023-04-01T05:40:09;10.20;99.90
19152;DHT22;9708;53.114;9.388;2023-04-01T05:42:36;10.20;99.90
19152;DHT22;9708;53.114;9.388;2023-04-01T05:45:03;10.20;99.90
19152;DHT22;9708;53.114;9.388;2023-04-01T05:47:30;10.40;99.90
19152;DHT22;9708;53.114;9.388;2023-04-01T05:49:58;10.30;99.90
19152;DHT22;9708;53.114;9.388;2023-04-01T05:52:25;10.30;99.90
19152;DHT22;9708;53.114;9.388;2023-04-01T05:54:52;10.30;99.90
19152;DHT22;9708;53.114;9.388;2023-04-01T05:57:18;10.40;99.90
19152;DHT22;9708;53.114;9.388;2023-04-01T05:59:46;10.40;99.90
19152;DHT22;9708;53.114;9.388;2023-04-01T06:02:13;10.30;99.90
19152;DHT22;9708;53.114;9.388;2023-04-01T06:04:43;10.30;99.90
19152;DHT22;9708;53.114;9.388;2023-04-01T06:07:15;10.30;99.90
19152;DHT22;9708;53.114;9.388;2023-04-01T06:09:43;10.20;99.90
19152;DHT22;9708;53.114;9.388;2023-04-01T06:12:27;10.30;99.90
19152;DHT22;9708;53.114;9.388;2023-04-01T06:15:03;10.30;99.90
19152;DHT22;9708;53.114;9.388;2023-04-01T06:17:43;10.40;99.90
19152;DHT22;9708;53.114;9.388;2023-04-01T06:20:19;10.50;99.90
19152;DHT22;9708;53.114;9.388;2023-04-01T06:23:01;10.40;99.90
19152;DHT22;9708;53.114;9.388;2023-04-01T06:25:46;10.50;99.90
19152;DHT22;9708;53.114;9.388;2023-04-01T06:28:38;10.40;99.90
19152;DHT22;9708;53.114;9.388;2023-04-01T06:31:16;10.40;99.90
19152;DHT22;9708;53.114;9.388;2023-04-01T06:33:56;10.50;99.90
19152;DHT22;9708;53.114;9.388;2023-04-01T06:36:58;10.50;99.90
19152;DHT22;9708;53.114;9.388;2023-04-01T06:39:41;10.50;99.90
19152;DHT22;9708;53.114;9.388;2023-04-01T06:42:32;10.60;99.90
19152;DHT22;9708;53.114;9.388;2023-04-01T06:45:11;10.70;99.90
19152;DHT22;9708;53.114;9.388;2023-04-01T06:47:49;10.60;99.90
19152;DHT22;9708;53.114;9.388;2023-04-01T06:50:23;10.50;99.90
19152;DHT22;9708;53.114;9.388;2023-04-01T06:52:59;10.60;99.90
19152;DHT22;9708;53.114;9.388;2023-04-01T06:55:34;10.70;99.90
19152;DHT22;9708;53.114;9.388;2023-04-01T06:58:05;10.80;99.90
19152;DHT22;9708;53.114;9.388;2023-04-01T07:00:34;10.90;99.90
19152;DHT22;9708;53.114;9.388;2023-04-01T07:03:08;11.00;99.90
19152;DHT22;9708;53.114;9.388;2023-04-01T07:05:39;10.90;99.90
19152;DHT22;9708;53.114;9.388;2023-04-01T07:08:10;11.00;99.90
19152;DHT22;9708;53.114;9.388;2023-04-01T07:10:43;11.00;99.90
19152;DHT22;9708;53.114;9.388;2023-04-01T07:13:15;11.10;99.90
19152;DHT22;9708;53.114;9.388;2023-04-01T07:15:48;11.20;99.90
19152;DHT22;9708;53.114;9.388;2023-04-01T07:18:19;11.10;99.90
19152;DHT22;9708;53.114;9.388;2023-04-01T07:20:49;11.00;99.90
19152;DHT22;9708;53.114;9.388;2023-04-01T07:23:22;10.90;99.90
19152;DHT22;9708;53.114;9.388;2023-04-01T07:25:55;11.20;99.90
19152;DHT22;9708;53.114;9.388;2023-04-01T07:28:29;11.10;99.90
19152;DHT22;9708;53.114;9.388;2023-04-01T07:31:05;11.20;99.90
19152;DHT22;9708;53.114;9.388;2023-04-01T07:33:38;11.20;99.90
19152;DHT22;9708;53.114;9.388;2023-04-01T07:36:09;11.40;99.90
19152;DHT22;9708;53.114;9.388;2023-04-01T07:38:48;11.40;99.90
19152;DHT22;9708;53.114;9.388;2023-04-01T07:41:23;11.50;99.90
19152;DHT22;9708;53.114;9.388;2023-04-01T07:44:02;11.50;99.90
19152;DHT22;9708;53.114;9.388;2023-04-01T07:46:57;11.40;99.90
19152;DHT22;9708;53.114;9.388;2023-04-01T07:49:33;11.10;99.90
19152;DHT22;9708;53.114;9.388;2023-04-01T07:52:03;11.00;99.90
19152;DHT22;9708;53.114;9.388;2023-04-01T07:54:37;11.20;99.90
19152;DHT22;9708;53.114;9.388;2023-04-01T07:57:12;11.20;99.90
19152;DHT22;9708;53.114;9.388;2023-04-01T07:59:47;11.30;99.90
19152;DHT22;9708;53.114;9.388;2023-04-01T08:02:25;11.40;99.90
19152;DHT22;9708;53.114;9.388;2023-04-01T08:05:02;11.40;99.90
19152;DHT22;9708;53.114;9.388;2023-04-01T08:07:39;11.50;99.90
19152;DHT22;9708;53.114;9.388;2023-04-01T08:10:12;11.40;99.90
19152;DHT22;9708;53.114;9.388;2023-04-01T08:12:50;11.50;99.90
19152;DHT22;9708;53.114;9.388;2023-04-01T08:15:23;11.60;99.90
19152;DHT22;9708;53.114;9.388;2023-04-01T08:18:07;11.60;99.90
19152;DHT22;9708;53.114;9.388;2023-04-01T08:20:41;11.50;99.90
19152;DHT22;9708;53.114;9.388;2023-04-01T08:23:13;11.30;99.90
19152;DHT22;9708;53.114;9.388;2023-04-01T08:25:44;11.30;99.90
19152;DHT22;9708;53.114;9.388;2023-04-01T08:28:17;11.50;99.90
19152;DHT22;9708;53.114;9.388;2023-04-01T08:30:49;11.50;99.90
19152;DHT22;9708;53.114;9.388;2023-04-01T08:33:21;11.50;99.90
19152;DHT22;9708;53.114;9.388;2023-04-01T08:35:53;11.50;99.90
19152;DHT22;9708;53.114;9.388;2023-04-01T08:38:26;11.70;99.90
19152;DHT22;9708;53.114;9.388;2023-04-01T08:40:58;11.60;99.90
19152;DHT22;9708;53.114;9.388;2023-04-01T08:46:58;11.80;99.90
19152;DHT22;9708;53.114;9.388;2023-04-01T08:49:44;12.00;99.90
19152;DHT22;9708;53.114;9.388;2023-04-01T08:52:33;11.90;99.90
19152;DHT22;9708;53.114;9.388;2023-04-01T08:55:31;11.90;99.90
19152;DHT22;9708;53.114;9.388;2023-04-01T08:58:17;12.00;99.90
19152;DHT22;9708;53.114;9.388;2023-04-01T09:00:50;11.80;99.90
19152;DHT22;9708;53.114;9.388;2023-04-01T09:03:37;11.80;99.90
19152;DHT22;9708;53.114;9.388;2023-04-01T09:06:31;12.00;99.90
19152;DHT22;9708;53.114;9.388;2023-04-01T09:09:19;11.90;99.90
19152;DHT22;9708;53.114;9.388;2023-04-01T09:12:06;11.90;99.90
19152;DHT22;9708;53.114;9.388;2023-04-01T09:14:53;12.00;99.90
19152;DHT22;9708;53.114;9.388;2023-04-01T09:20:47;12.00;99.90
19152;DHT22;9708;53.114;9.388;2023-04-01T09:23:38;11.70;99.90
19152;DHT22;9708;53.114;9.388;2023-04-01T09:26:37;11.80;99.90
19152;DHT22;9708;53.114;9.388;2023-04-01T09:29:22;12.10;99.90
19152;DHT22;9708;53.114;9.388;2023-04-01T09:32:04;11.70;99.90
19152;DHT22;9708;53.114;9.388;2023-04-01T09:34:53;11.10;99.90
19152;DHT22;9708;53.114;9.388;2023-04-01T09:37:34;10.40;99.90
19152;DHT22;9708;53.114;9.388;2023-04-01T09:40:14;10.20;99.90
19152;DHT22;9708;53.114;9.388;2023-04-01T09:42:49;10.20;99.90
19152;DHT22;9708;53.114;9.388;2023-04-01T09:45:29;10.20;99.90
19152;DHT22;9708;53.114;9.388;2023-04-01T09:48:08;10.10;99.90
19152;DHT22;9708;53.114;9.388;2023-04-01T09:50:46;10.20;99.90
19152;DHT22;9708;53.114;9.388;2023-04-01T09:53:26;10.00;99.90
19152;DHT22;9708;53.114;9.388;2023-04-01T09:59:47;10.10;99.90
19152;DHT22;9708;53.114;9.388;2023-04-01T10:05:34;9.90;99.90
19152;DHT22;9708;53.114;9.388;2023-04-01T10:08:28;10.00;99.90
19152;DHT22;9708;53.114;9.388;2023-04-01T10:11:19;10.30;99.90
19152;DHT22;9708;53.114;9.388;2023-04-01T10:14:07;10.10;99.90
19152;DHT22;9708;53.114;9.388;2023-04-01T10:17:08;9.80;99.90
19152;DHT22;9708;53.114;9.388;2023-04-01T10:19:57;9.70;99.90
19152;DHT22;9708;53.114;9.388;2023-04-01T10:25:55;9.60;99.90
19152;DHT22;9708;53.114;9.388;2023-04-01T10:29:02;9.70;99.90
19152;DHT22;9708;53.114;9.388;2023-04-01T10:35:21;9.90;99.90
19152;DHT22;9708;53.114;9.388;2023-04-01T10:38:11;9.90;99.90
19152;DHT22;9708;53.114;9.388;2023-04-01T10:41:10;9.80;99.90
19152;DHT22;9708;53.114;9.388;2023-04-01T10:44:04;9.60;99.90
19152;DHT22;9708;53.114;9.388;2023-04-01T10:46:53;9.40;99.90
19152;DHT22;9708;53.114;9.388;2023-04-01T10:53:21;9.40;99.90
19152;DHT22;9708;53.114;9.388;2023-04-01T10:56:33;9.30;99.90
19152;DHT22;9708;53.114;9.388;2023-04-01T10:59:28;9.10;99.90
19152;DHT22;9708;53.114;9.388;2023-04-01T11:15:02;9.00;99.90
19152;DHT22;9708;53.114;9.388;2023-04-01T11:17:55;9.00;99.90
19152;DHT22;9708;53.114;9.388;2023-04-01T11:20:49;9.00;99.90
19152;DHT22;9708;53.114;9.388;2023-04-01T11:23:29;9.20;99.90
19152;DHT22;9708;53.114;9.388;2023-04-01T11:26:08;9.20;99.90
19152;DHT22;9708;53.114;9.388;2023-04-01T11:28:55;9.20;99.90
19152;DHT22;9708;53.114;9.388;2023-04-01T11:31:37;9.20;99.90
19152;DHT22;9708;53.114;9.388;2023-04-01T11:34:14;9.10;99.90
19152;DHT22;9708;53.114;9.388;2023-04-01T11:36:48;9.10;99.90
19152;DHT22;9708;53.114;9.388;2023-04-01T11:39:24;9.10;99.90
19152;DHT22;9708;53.114;9.388;2023-04-01T11:42:01;9.10;99.90
19152;DHT22;9708;53.114;9.388;2023-04-01T11:44:35;9.00;99.90
19152;DHT22;9708;53.114;9.388;2023-04-01T11:47:30;9.20;99.90
19152;DHT22;9708;53.114;9.388;2023-04-01T11:50:15;9.10;99.90
19152;DHT22;9708;53.114;9.388;2023-04-01T11:52:59;9.00;99.90
19152;DHT22;9708;53.114;9.388;2023-04-01T11:55:38;9.10;99.90
19152;DHT22;9708;53.114;9.388;2023-04-01T11:58:40;9.10;99.90
19152;DHT22;9708;53.114;9.388;2023-04-01T12:01:33;9.00;99.90
19152;DHT22;9708;53.114;9.388;2023-04-01T12:04:27;9.20;99.90
19152;DHT22;9708;53.114;9.388;2023-04-01T12:07:05;9.30;99.90
19152;DHT22;9708;53.114;9.388;2023-04-01T12:09:41;8.90;99.90
19152;DHT22;9708;53.114;9.388;2023-04-01T12:12:18;9.00;99.90
19152;DHT22;9708;53.114;9.388;2023-04-01T12:14:58;9.10;99.90
19152;DHT22;9708;53.114;9.388;2023-04-01T12:17:34;9.00;99.90
19152;DHT22;9708;53.114;9.388;2023-04-01T12:20:21;9.00;99.90
19152;DHT22;9708;53.114;9.388;2023-04-01T12:22:59;8.90;99.90
19152;DHT22;9708;53.114;9.388;2023-04-01T12:25:46;9.10;99.90
19152;DHT22;9708;53.114;9.388;2023-04-01T12:28:21;9.10;99.90
19152;DHT22;9708;53.114;9.388;2023-04-01T12:31:01;9.00;99.90
19152;DHT22;9708;53.114;9.388;2023-04-01T12:33:48;8.90;99.90
19152;DHT22;9708;53.114;9.388;2023-04-01T12:36:28;9.00;99.90
19152;DHT22;9708;53.114;9.388;2023-04-01T12:41:53;9.00;99.90
19152;DHT22;9708;53.114;9.388;2023-04-01T12:44:51;9.20;99.90
19152;DHT22;9708;53.114;9.388;2023-04-01T12:47:36;9.10;99.90
19152;DHT22;9708;53.114;9.388;2023-04-01T12:50:26;9.10;99.90
19152;DHT22;9708;53.114;9.388;2023-04-01T12:53:13;9.00;99.90
19152;DHT22;9708;53.114;9.388;2023-04-01T12:55:43;8.80;99.90
19152;DHT22;9708;53.114;9.388;2023-04-01T12:58:37;9.00;99.90
19152;DHT22;9708;53.114;9.388;2023-04-01T13:01:30;9.00;99.90
19152;DHT22;9708;53.114;9.388;2023-04-01T13:04:18;9.20;99.90
19152;DHT22;9708;53.114;9.388;2023-04-01T13:07:02;9.20;99.90
19152;DHT22;9708;53.114;9.388;2023-04-01T13:09:39;9.00;99.90
19152;DHT22;9708;53.114;9.388;2023-04-01T13:12:35;8.90;99.90
19152;DHT22;9708;53.114;9.388;2023-04-01T13:15:28;9.00;99.90
19152;DHT22;9708;53.114;9.388;2023-04-01T13:18:05;8.90;99.90
19152;DHT22;9708;53.114;9.388;2023-04-01T13:20:43;9.00;99.90
19152;DHT22;9708;53.114;9.388;2023-04-01T13:23:24;8.80;99.90
19152;DHT22;9708;53.114;9.388;2023-04-01T13:26:01;9.00;99.90
19152;DHT22;9708;53.114;9.388;2023-04-01T13:28:36;9.10;99.90
19152;DHT22;9708;53.114;9.388;2023-04-01T13:31:09;9.10;99.90
19152;DHT22;9708;53.114;9.388;2023-04-01T13:33:44;8.80;99.90
19152;DHT22;9708;53.114;9.388;2023-04-01T13:36:19;8.60;99.90
19152;DHT22;9708;53.114;9.388;2023-04-01T13:39:23;8.70;99.90
19152;DHT22;9708;53.114;9.388;2023-04-01T13:42:07;8.60;99.90
19152;DHT22;9708;53.114;9.388;2023-04-01T13:44:42;8.50;99.90
19152;DHT22;9708;53.114;9.388;2023-04-01T13:50:30;8.50;99.90
19152;DHT22;9708;53.114;9.388;2023-04-01T13:53:29;8.50;99.90
19152;DHT22;9708;53.114;9.388;2023-04-01T13:56:18;8.50;99.90
19152;DHT22;9708;53.114;9.388;2023-04-01T13:58:58;8.50;99.90
19152;DHT22;9708;53.114;9.388;2023-04-01T14:01:35;8.50;99.90
19152;DHT22;9708;53.114;9.388;2023-04-01T14:07:31;8.30;99.90
19152;DHT22;9708;53.114;9.388;2023-04-01T14:10:07;8.50;99.90
19152;DHT22;9708;53.114;9.388;2023-04-01T14:12:46;8.60;99.90
19152;DHT22;9708;53.114;9.388;2023-04-01T14:15:26;8.50;99.90
19152;DHT22;9708;53.114;9.388;2023-04-01T14:18:13;8.70;99.90
19152;DHT22;9708;53.114;9.388;2023-04-01T14:20:46;8.50;99.90
19152;DHT22;9708;53.114;9.388;2023-04-01T14:23:34;8.60;99.90
19152;DHT22;9708;53.114;9.388;2023-04-01T14:26:13;8.40;99.90
19152;DHT22;9708;53.114;9.388;2023-04-01T14:28:52;8.20;99.90
19152;DHT22;9708;53.114;9.388;2023-04-01T14:31:39;8.10;99.90
19152;DHT22;9708;53.114;9.388;2023-04-01T14:34:19;8.10;99.90
19152;DHT22;9708;53.114;9.388;2023-04-01T14:37:01;8.10;99.90
19152;DHT22;9708;53.114;9.388;2023-04-01T14:39:54;8.20;99.90
19152;DHT22;9708;53.114;9.388;2023-04-01T14:42:45;8.10;99.90
19152;DHT22;9708;53.114;9.388;2023-04-01T14:48:21;8.20;99.90
19152;DHT22;9708;53.114;9.388;2023-04-01T14:50:51;8.20;99.90
19152;DHT22;9708;53.114;9.388;2023-04-01T14:53:27;8.30;99.90
19152;DHT22;9708;53.114;9.388;2023-04-01T14:55:55;8.00;99.90
19152;DHT22;9708;53.114;9.388;2023-04-01T14:58:40;7.90;99.90
19152;DHT22;9708;53.114;9.388;2023-04-01T15:01:17;7.80;99.90
19152;DHT22;9708;53.114;9.388;2023-04-01T15:03:57;7.80;99.90
19152;DHT22;9708;53.114;9.388;2023-04-01T15:06:41;7.70;99.90
19152;DHT22;9708;53.114;9.388;2023-04-01T15:09:19;7.80;99.90
19152;DHT22;9708;53.114;9.388;2023-04-01T15:12:05;7.70;99.90
19152;DHT22;9708;53.114;9.388;2023-04-01T15:14:51;7.60;99.90
19152;DHT22;9708;53.114;9.388;2023-04-01T15:17:39;7.80;99.90
19152;DHT22;9708;53.114;9.388;2023-04-01T15:20:25;7.80;99.90
19152;DHT22;9708;53.114;9.388;2023-04-01T15:23:06;7.60;99.90
19152;DHT22;9708;53.114;9.388;2023-04-01T15:26:05;7.60;99.90
19152;DHT22;9708;53.114;9.388;2023-04-01T15:28:38;7.60;99.90
19152;DHT22;9708;53.114;9.388;2023-04-01T15:31:11;7.70;99.90
19152;DHT22;9708;53.114;9.388;2023-04-01T15:33:53;7.70;99.90
19152;DHT22;9708;53.114;9.388;2023-04-01T15:36:30;7.50;99.90
19152;DHT22;9708;53.114;9.388;2023-04-01T15:39:09;7.40;99.90
19152;DHT22;9708;53.114;9.388;2023-04-01T15:41:44;7.30;99.90
19152;DHT22;9708;53.114;9.388;2023-04-01T15:44:37;7.30;99.90
19152;DHT22;9708;53.114;9.388;2023-04-01T15:47:28;7.30;99.90
19152;DHT22;9708;53.114;9.388;2023-04-01T15:50:30;7.30;99.90
19152;DHT22;9708;53.114;9.388;2023-04-01T15:55:57;7.30;99.90
19152;DHT22;9708;53.114;9.388;2023-04-01T15:58:40;7.30;99.90
19152;DHT22;9708;53.114;9.388;2023-04-01T16:01:21;7.20;99.90
19152;DHT22;9708;53.114;9.388;2023-04-01T16:03:55;7.20;99.90
19152;DHT22;9708;53.114;9.388;2023-04-01T16:06:43;7.20;99.90
19152;DHT22;9708;53.114;9.388;2023-04-01T16:09:25;7.30;99.90
19152;DHT22;9708;53.114;9.388;2023-04-01T16:12:01;7.30;99.90
19152;DHT22;9708;53.114;9.388;2023-04-01T16:14:39;7.20;99.90
19152;DHT22;9708;53.114;9.388;2023-04-01T16:17:24;7.30;99.90
19152;DHT22;9708;53.114;9.388;2023-04-01T16:19:54;7.00;99.90
19152;DHT22;9708;53.114;9.388;2023-04-01T16:22:26;7.10;99.90
19152;DHT22;9708;53.114;9.388;2023-04-01T16:25:07;7.10;99.90
19152;DHT22;9708;53.114;9.388;2023-04-01T16:27:46;7.10;99.90
19152;DHT22;9708;53.114;9.388;2023-04-01T16:30:28;7.10;99.90
19152;DHT22;9708;53.114;9.388;2023-04-01T16:33:03;7.00;99.90
19152;DHT22;9708;53.114;9.388;2023-04-01T16:35:41;7.00;99.90
19152;DHT22;9708;53.114;9.388;2023-04-01T16:38:17;6.90;99.90
19152;DHT22;9708;53.114;9.388;2023-04-01T16:40:58;6.90;99.90
19152;DHT22;9708;53.114;9.388;2023-04-01T16:43:30;6.70;99.90
19152;DHT22;9708;53.114;9.388;2023-04-01T16:46:27;6.70;99.90
19152;DHT22;9708;53.114;9.388;2023-04-01T16:51:45;6.80;99.90
19152;DHT22;9708;53.114;9.388;2023-04-01T16:54:18;6.80;99.90
19152;DHT22;9708;53.114;9.388;2023-04-01T16:57:02;6.70;99.90
19152;DHT22;9708;53.114;9.388;2023-04-01T16:59:35;6.70;99.90
19152;DHT22;9708;53.114;9.388;2023-04-01T17:02:08;6.80;99.90
19152;DHT22;9708;53.114;9.388;2023-04-01T17:04:38;6.70;99.90
19152;DHT22;9708;53.114;9.388;2023-04-01T17:07:22;6.70;99.90
19152;DHT22;9708;53.114;9.388;2023-04-01T17:10:11;6.70;99.90
19152;DHT22;9708;53.114;9.388;2023-04-01T17:12:52;6.60;99.90
19152;DHT22;9708;53.114;9.388;2023-04-01T17:15:26;6.60;99.90
19152;DHT22;9708;53.114;9.388;2023-04-01T17:18:00;6.60;99.90
19152;DHT22;9708;53.114;9.388;2023-04-01T17:20:35;6.60;99.90
19152;DHT22;9708;53.114;9.388;2023-04-01T17:23:13;6.60;99.90
19152;DHT22;9708;53.114;9.388;2023-04-01T17:25:52;6.60;99.90
19152;DHT22;9708;53.114;9.388;2023-04-01T17:28:31;6.50;99.90
19152;DHT22;9708;53.114;9.388;2023-04-01T17:31:07;6.40;99.90
19152;DHT22;9708;53.114;9.388;2023-04-01T17:33:49;6.50;99.90
19152;DHT22;9708;53.114;9.388;2023-04-01T17:36:27;6.40;99.90
19152;DHT22;9708;53.114;9.388;2023-04-01T17:39:05;6.40;99.90
19152;DHT22;9708;53.114;9.388;2023-04-01T17:41:44;6.30;99.90
19152;DHT22;9708;53.114;9.388;2023-04-01T17:44:24;6.20;99.90
19152;DHT22;9708;53.114;9.388;2023-04-01T17:47:09;6.20;99.90
19152;DHT22;9708;53.114;9.388;2023-04-01T17:49:39;6.10;99.90
19152;DHT22;9708;53.114;9.388;2023-04-01T17:52:16;6.20;99.90